Time;durP1;ratioP1;P1;durP2;ratioP2;P2;SDS_P1;SDS_P2;PMS_P1;PMS_P2;Temp;Humidity;BMP_temperature;BMP_pressure;BME280_temperature;BME280_humidity;BME280_pressure;Samples;Min_cycle;Max_cycle;Signal;HPM_P1;HPM_P2
2022/07/08 00:00:40;;;;;;;2.67;1.40;;;;;;;;;;5078133;28;20490;-62
2022/07/08 00:03:06;;;;;;;2.37;1.27;;;;;;;;;;5087605;28;20058;-63
2022/07/08 00:05:33;;;;;;;3.47;2.03;;;;;;;;;;5087694;28;20024;-62
2022/07/08 00:08:00;;;;;;;2.50;1.53;;;;;;;;;;5087282;28;20035;-63
2022/07/08 00:10:27;;;;;;;3.87;1.80;;;;;;;;;;5083748;28;20082;-62
2022/07/08 00:12:53;;;;;;;2.03;1.07;;;;;;;;;;5072556;28;20116;-62
2022/07/08 00:15:23;;;;;;;5.80;1.67;;;;;;;;;;5072719;28;20036;-62
2022/07/08 00:17:50;;;;;;;3.40;1.40;;;;;;;;;;5072791;28;20387;-62
2022/07/08 00:20:17;;;;;;;24.30;1.63;;;;;;;;;;5073613;28;20021;-63
2022/07/08 00:22:43;;;;;;;4.60;1.63;;;;;;;;;;5092629;28;20054;-62
2022/07/08 00:25:10;;;;;;;5.03;1.83;;;;;;;;;;5087176;28;20609;-62
2022/07/08 00:27:37;;;;;;;4.20;1.63;;;;;;;;;;5087412;28;20032;-62
2022/07/08 00:30:04;;;;;;;11.70;2.43;;;;;;;;;;5087442;28;20089;-62
2022/07/08 00:32:30;;;;;;;2.27;1.07;;;;;;;;;;5067160;28;20032;-62
2022/07/08 00:34:57;;;;;;;5.90;2.10;;;;;;;;;;5071933;28;20049;-62
2022/07/08 00:37:24;;;;;;;1.87;1.30;;;;;;;;;;5072544;28;20031;-62
2022/07/08 00:39:50;;;;;;;4.80;2.00;;;;;;;;;;5072041;28;20416;-63
2022/07/08 00:42:17;;;;;;;3.73;1.57;;;;;;;;;;5090066;28;21210;-62
2022/07/08 00:44:43;;;;;;;3.07;1.23;;;;;;;;;;5092648;28;20032;-62
2022/07/08 00:47:10;;;;;;;1.57;1.10;;;;;;;;;;5087524;28;20031;-62
2022/07/08 00:49:37;;;;;;;2.43;1.00;;;;;;;;;;5087129;28;20036;-62
2022/07/08 00:52:04;;;;;;;7.70;1.30;;;;;;;;;;5071075;28;20432;-62
2022/07/08 00:54:31;;;;;;;4.03;1.77;;;;;;;;;;5066788;28;20046;-62
2022/07/08 00:56:58;;;;;;;2.73;1.73;;;;;;;;;;5070954;28;20502;-62
2022/07/08 00:59:25;;;;;;;3.17;1.20;;;;;;;;;;5072371;28;20165;-62
2022/07/08 01:01:52;;;;;;;6.10;1.60;;;;;;;;;;5087688;28;20527;-62
2022/07/08 01:04:19;;;;;;;0.67;0.57;;;;;;;;;;5092617;28;20491;-62
2022/07/08 01:06:45;;;;;;;1.37;1.10;;;;;;;;;;5092283;28;20478;-62
2022/07/08 01:09:14;;;;;;;1.63;1.20;;;;;;;;;;5087456;28;20103;-62
2022/07/08 01:11:43;;;;;;;1.97;1.07;;;;;;;;;;5072717;28;20040;-62
2022/07/08 01:14:10;;;;;;;0.40;0.33;;;;;;;;;;5066582;28;20029;-62
2022/07/08 01:16:36;;;;;;;3.53;0.80;;;;;;;;;;5080032;28;20110;-62
2022/07/08 01:19:03;;;;;;;0.77;0.57;;;;;;;;;;5090814;28;20377;-62
2022/07/08 01:21:30;;;;;;;1.60;0.90;;;;;;;;;;5092278;28;20100;-62
2022/07/08 01:23:56;;;;;;;0.80;0.50;;;;;;;;;;5092124;28;20024;-62
2022/07/08 01:26:23;;;;;;;0.40;0.40;;;;;;;;;;5080644;28;20032;-62
2022/07/08 01:28:50;;;;;;;3.03;0.90;;;;;;;;;;5071809;28;20020;-62
2022/07/08 01:31:17;;;;;;;0.43;0.33;;;;;;;;;;5069312;28;20024;-62
2022/07/08 01:33:43;;;;;;;0.93;0.67;;;;;;;;;;5070700;28;20031;-62
2022/07/08 01:36:10;;;;;;;4.33;1.27;;;;;;;;;;5079229;28;20085;-62
2022/07/08 01:38:37;;;;;;;0.63;0.53;;;;;;;;;;5090652;28;20111;-62
2022/07/08 01:41:03;;;;;;;7.30;1.30;;;;;;;;;;5093923;28;20095;-62
2022/07/08 01:43:30;;;;;;;2.63;0.83;;;;;;;;;;5095654;28;20028;-62
2022/07/08 01:45:57;;;;;;;2.57;0.97;;;;;;;;;;5088848;28;20499;-62
2022/07/08 01:48:24;;;;;;;0.93;0.70;;;;;;;;;;5075814;28;20032;-62
2022/07/08 01:50:51;;;;;;;1.33;1.13;;;;;;;;;;5075570;28;20094;-62
2022/07/08 01:53:17;;;;;;;2.87;1.93;;;;;;;;;;5072002;28;20025;-62
2022/07/08 01:55:45;;;;;;;2.00;1.10;;;;;;;;;;5074291;28;20383;-62
2022/07/08 01:58:12;;;;;;;2.53;1.50;;;;;;;;;;5089930;28;20103;-62
2022/07/08 02:00:39;;;;;;;1.30;0.97;;;;;;;;;;5090106;28;20024;-62
2022/07/08 02:03:06;;;;;;;2.13;0.90;;;;;;;;;;5092942;28;20020;-62
2022/07/08 02:05:34;;;;;;;1.07;0.70;;;;;;;;;;5092617;28;20044;-62
2022/07/08 02:08:03;;;;;;;1.87;0.90;;;;;;;;;;5075161;28;20035;-62
2022/07/08 02:12:18;;;;;;;1.40;0.50;;;;;;;;;;5075084;28;20051;-61
2022/07/08 02:13:16;;;;;;;0.83;0.60;;;;;;;;;;5075014;28;20044;-61
2022/07/08 02:15:43;;;;;;;2.33;0.87;;;;;;;;;;5074494;28;20040;-62
2022/07/08 02:18:10;;;;;;;1.03;0.70;;;;;;;;;;5089880;28;20031;-62
2022/07/08 02:20:36;;;;;;;2.33;0.83;;;;;;;;;;5089431;28;20028;-62
2022/07/08 02:23:03;;;;;;;0.53;0.50;;;;;;;;;;5089780;28;20116;-62
2022/07/08 02:25:30;;;;;;;2.13;1.13;;;;;;;;;;5090928;28;20027;-62
2022/07/08 02:27:56;;;;;;;1.87;1.10;;;;;;;;;;5074501;28;20032;-62
2022/07/08 02:30:23;;;;;;;0.77;0.67;;;;;;;;;;5074956;28;20036;-62
2022/07/08 02:32:50;;;;;;;0.80;0.70;;;;;;;;;;5074768;28;20406;-63
2022/07/08 02:35:16;;;;;;;1.30;0.87;;;;;;;;;;5074835;28;20529;-63
2022/07/08 02:37:43;;;;;;;0.67;0.57;;;;;;;;;;5091011;28;20028;-62
2022/07/08 02:40:10;;;;;;;3.03;0.90;;;;;;;;;;5089765;28;20127;-61
2022/07/08 02:42:37;;;;;;;5.93;1.17;;;;;;;;;;5088492;28;20111;-62
2022/07/08 02:45:04;;;;;;;0.33;0.33;;;;;;;;;;5089418;28;20025;-62
2022/07/08 02:47:30;;;;;;;2.17;0.67;;;;;;;;;;5074060;28;20029;-62
2022/07/08 02:49:57;;;;;;;0.60;0.57;;;;;;;;;;5075448;28;20032;-62
2022/07/08 02:52:23;;;;;;;1.17;0.90;;;;;;;;;;5074519;28;20044;-62
2022/07/08 02:54:51;;;;;;;3.93;1.30;;;;;;;;;;5083323;28;20359;-62
2022/07/08 02:57:17;;;;;;;0.50;0.50;;;;;;;;;;5094707;28;20396;-62
2022/07/08 02:59:44;;;;;;;8.93;0.87;;;;;;;;;;5091047;28;20020;-62
2022/07/08 03:02:11;;;;;;;2.70;1.47;;;;;;;;;;5089222;28;20443;-62
2022/07/08 03:04:37;;;;;;;3.30;1.50;;;;;;;;;;5074697;28;20082;-62
2022/07/08 03:07:04;;;;;;;3.80;1.83;;;;;;;;;;5068684;28;20103;-62
2022/07/08 03:09:31;;;;;;;1.50;1.17;;;;;;;;;;5071252;28;20033;-61
2022/07/08 03:11:57;;;;;;;2.53;1.23;;;;;;;;;;5074207;28;20032;-62
2022/07/08 03:14:24;;;;;;;2.10;1.43;;;;;;;;;;5085238;28;20039;-63
2022/07/08 03:16:51;;;;;;;1.17;0.90;;;;;;;;;;5094136;28;20024;-62
2022/07/08 03:19:17;;;;;;;1.33;1.07;;;;;;;;;;5091069;28;20031;-62
2022/07/08 03:21:44;;;;;;;1.37;0.80;;;;;;;;;;5071171;28;20024;-61
2022/07/08 03:24:12;;;;;;;3.50;1.03;;;;;;;;;;5069249;28;20074;-62
2022/07/08 03:26:38;;;;;;;4.10;1.70;;;;;;;;;;5068230;28;20463;-62
2022/07/08 03:29:05;;;;;;;6.27;1.53;;;;;;;;;;5068389;28;20098;-62
2022/07/08 03:31:32;;;;;;;6.27;2.37;;;;;;;;;;5069830;28;20020;-62
2022/07/08 03:33:58;;;;;;;3.60;1.20;;;;;;;;;;5089005;28;20028;-62
2022/07/08 03:36:25;;;;;;;2.57;1.43;;;;;;;;;;5093833;28;20026;-62
2022/07/08 03:38:52;;;;;;;3.03;1.67;;;;;;;;;;5093868;28;20020;-61
2022/07/08 03:41:22;;;;;;;2.57;1.40;;;;;;;;;;5093709;28;20454;-62
2022/07/08 03:43:50;;;;;;;4.30;1.63;;;;;;;;;;5076707;28;20442;-62
2022/07/08 03:46:17;;;;;;;2.87;1.63;;;;;;;;;;5067826;28;20024;-61
2022/07/08 03:48:44;;;;;;;2.33;1.37;;;;;;;;;;5067543;28;20033;-63
2022/07/08 03:51:11;;;;;;;5.30;2.13;;;;;;;;;;5067921;28;20512;-62
2022/07/08 03:53:38;;;;;;;9.23;2.17;;;;;;;;;;5080497;28;20028;-62
2022/07/08 03:56:05;;;;;;;1.40;1.20;;;;;;;;;;5093568;28;20382;-62
2022/07/08 03:58:32;;;;;;;3.00;1.03;;;;;;;;;;5089862;28;20050;-62
2022/07/08 04:00:59;;;;;;;6.30;1.50;;;;;;;;;;5073085;28;20024;-62
2022/07/08 04:03:26;;;;;;;0.63;0.53;;;;;;;;;;5083534;28;20024;-62
2022/07/08 04:05:53;;;;;;;0.87;0.83;;;;;;;;;;5071615;28;20032;-61
2022/07/08 04:08:19;;;;;;;1.50;1.03;;;;;;;;;;5084320;28;20032;-61
2022/07/08 04:10:46;;;;;;;1.87;1.10;;;;;;;;;;5081735;28;20567;-62
2022/07/08 04:13:13;;;;;;;0.80;0.80;;;;;;;;;;5073136;28;20033;-61
2022/07/08 04:15:40;;;;;;;2.93;1.63;;;;;;;;;;5068780;28;20024;-61
2022/07/08 04:18:06;;;;;;;12.80;1.17;;;;;;;;;;5072350;28;20023;-61
2022/07/08 04:20:34;;;;;;;3.13;1.70;;;;;;;;;;5086201;28;20024;-62
2022/07/08 04:23:00;;;;;;;1.73;0.90;;;;;;;;;;5093122;28;20370;-61
2022/07/08 04:25:27;;;;;;;15.23;1.70;;;;;;;;;;5092950;28;20042;-62
2022/07/08 04:27:53;;;;;;;5.67;1.37;;;;;;;;;;5080802;28;20355;-62
2022/07/08 04:30:20;;;;;;;0.77;0.77;;;;;;;;;;5084001;28;20044;-62
2022/07/08 04:32:47;;;;;;;1.60;0.97;;;;;;;;;;5083198;28;20028;-61
2022/07/08 04:35:13;;;;;;;0.60;0.57;;;;;;;;;;5087154;28;20035;-62
2022/07/08 04:37:40;;;;;;;4.10;1.37;;;;;;;;;;5088249;28;20016;-62
2022/07/08 04:40:08;;;;;;;1.27;0.90;;;;;;;;;;5093237;28;20030;-61
2022/07/08 04:42:34;;;;;;;2.53;1.17;;;;;;;;;;5081680;28;20094;-61
2022/07/08 04:45:01;;;;;;;0.93;0.73;;;;;;;;;;5073914;28;20063;-62
2022/07/08 04:47:28;;;;;;;3.13;1.47;;;;;;;;;;5089765;28;20031;-61
2022/07/08 04:49:54;;;;;;;3.00;1.00;;;;;;;;;;5090870;28;20427;-61
2022/07/08 04:52:21;;;;;;;2.10;1.33;;;;;;;;;;5081391;28;20099;-61
2022/07/08 04:54:48;;;;;;;2.10;1.13;;;;;;;;;;5079015;28;20110;-61
2022/07/08 04:57:14;;;;;;;5.60;1.23;;;;;;;;;;5067224;28;20093;-62
2022/07/08 04:59:42;;;;;;;1.70;0.90;;;;;;;;;;5067366;28;20032;-62
2022/07/08 05:02:08;;;;;;;4.10;1.10;;;;;;;;;;5072250;28;20103;-62
2022/07/08 05:04:35;;;;;;;0.50;0.40;;;;;;;;;;5080537;28;20031;-61
2022/07/08 05:07:02;;;;;;;0.87;0.70;;;;;;;;;;5075423;28;20051;-61
2022/07/08 05:09:28;;;;;;;4.47;1.23;;;;;;;;;;5084861;28;20111;-61
2022/07/08 05:11:55;;;;;;;2.47;0.67;;;;;;;;;;5069875;28;20021;-61
2022/07/08 05:14:22;;;;;;;4.70;1.37;;;;;;;;;;5085185;28;20165;-61
2022/07/08 05:16:48;;;;;;;0.93;0.70;;;;;;;;;;5087084;28;20054;-62
2022/07/08 05:19:15;;;;;;;1.90;0.77;;;;;;;;;;5086779;28;20025;-61
2022/07/08 05:21:42;;;;;;;3.97;1.90;;;;;;;;;;5086756;28;20028;-62
2022/07/08 05:24:08;;;;;;;2.97;1.60;;;;;;;;;;5079266;28;20029;-61
2022/07/08 05:26:35;;;;;;;3.27;1.53;;;;;;;;;;5071953;28;20583;-61
2022/07/08 05:29:02;;;;;;;1.77;1.17;;;;;;;;;;5071980;28;20012;-61
2022/07/08 05:31:29;;;;;;;26.60;1.13;;;;;;;;;;5072082;28;20021;-61
2022/07/08 05:33:56;;;;;;;2.47;1.03;;;;;;;;;;5081935;28;20036;-61
2022/07/08 05:36:23;;;;;;;3.40;1.47;;;;;;;;;;5086591;28;20107;-62
2022/07/08 05:38:49;;;;;;;1.47;1.00;;;;;;;;;;5086219;28;20034;-61
2022/07/08 05:41:16;;;;;;;4.90;1.47;;;;;;;;;;5086666;28;20024;-61
2022/07/08 05:43:43;;;;;;;1.87;1.27;;;;;;;;;;5077683;28;20033;-62
2022/07/08 05:46:10;;;;;;;2.77;1.10;;;;;;;;;;5071592;28;20535;-61
2022/07/08 05:48:37;;;;;;;1.90;1.00;;;;;;;;;;5083569;28;20063;-61
2022/07/08 05:51:03;;;;;;;1.50;0.73;;;;;;;;;;5092003;28;20356;-61
2022/07/08 05:53:30;;;;;;;1.17;0.97;;;;;;;;;;5092210;28;20032;-61
2022/07/08 05:55:57;;;;;;;1.20;0.90;;;;;;;;;;5091061;28;20028;-62
2022/07/08 05:58:23;;;;;;;0.83;0.80;;;;;;;;;;5084817;28;20031;-62
2022/07/08 06:00:50;;;;;;;7.97;1.43;;;;;;;;;;5086459;28;20020;-61
2022/07/08 06:03:17;;;;;;;2.93;1.53;;;;;;;;;;5086651;28;20031;-62
2022/07/08 06:05:43;;;;;;;1.07;0.80;;;;;;;;;;5086625;28;20478;-61
2022/07/08 06:08:10;;;;;;;3.33;1.30;;;;;;;;;;5087829;28;20483;-61
2022/07/08 06:10:37;;;;;;;1.77;1.00;;;;;;;;;;5071212;28;20483;-61
2022/07/08 06:13:03;;;;;;;3.07;1.33;;;;;;;;;;5071393;28;20027;-61
2022/07/08 06:15:30;;;;;;;16.23;1.50;;;;;;;;;;5071653;28;20074;-61
2022/07/08 06:17:57;;;;;;;2.03;1.23;;;;;;;;;;5074690;28;20025;-61
2022/07/08 06:20:23;;;;;;;2.17;1.30;;;;;;;;;;5090290;28;20423;-62
2022/07/08 06:22:50;;;;;;;2.70;1.20;;;;;;;;;;5090191;28;20095;-62
2022/07/08 06:25:17;;;;;;;1.00;0.70;;;;;;;;;;5089862;28;20051;-61
2022/07/08 06:27:43;;;;;;;1.93;1.00;;;;;;;;;;5089567;28;20039;-61
2022/07/08 06:30:10;;;;;;;2.07;1.30;;;;;;;;;;5074376;28;20036;-61
2022/07/08 06:32:37;;;;;;;1.03;0.80;;;;;;;;;;5074920;28;20138;-62
2022/07/08 06:35:04;;;;;;;2.23;1.13;;;;;;;;;;5074912;28;20040;-61
2022/07/08 06:37:30;;;;;;;2.17;1.00;;;;;;;;;;5076879;28;20032;-61
2022/07/08 06:39:58;;;;;;;2.60;1.50;;;;;;;;;;5095079;28;20062;-61
2022/07/08 06:42:25;;;;;;;1.17;0.90;;;;;;;;;;5089871;28;20043;-61
2022/07/08 06:44:51;;;;;;;1.00;0.70;;;;;;;;;;5089664;28;20030;-61
2022/07/08 06:47:18;;;;;;;1.07;0.87;;;;;;;;;;5089403;28;20133;-62
2022/07/08 06:49:45;;;;;;;1.30;0.90;;;;;;;;;;5088363;28;20119;-62
2022/07/08 06:52:11;;;;;;;2.80;1.43;;;;;;;;;;5093220;28;20024;-61
2022/07/08 06:54:38;;;;;;;2.00;1.23;;;;;;;;;;5094803;28;20048;-61
2022/07/08 06:57:07;;;;;;;0.73;0.70;;;;;;;;;;5094732;28;20030;-61
2022/07/08 06:59:35;;;;;;;1.43;1.23;;;;;;;;;;5075553;28;20021;-61
2022/07/08 07:02:01;;;;;;;0.73;0.73;;;;;;;;;;5074391;28;20013;-62
2022/07/08 07:04:28;;;;;;;8.10;1.97;;;;;;;;;;5069904;28;20116;-61
2022/07/08 07:06:55;;;;;;;1.37;0.70;;;;;;;;;;5068991;28;20028;-61
2022/07/08 07:09:22;;;;;;;1.47;1.10;;;;;;;;;;5085046;28;20032;-61
2022/07/08 07:11:48;;;;;;;1.50;1.00;;;;;;;;;;5089144;28;20470;-61
2022/07/08 07:14:15;;;;;;;1.13;0.83;;;;;;;;;;5091929;28;20052;-61
2022/07/08 07:16:42;;;;;;;2.50;1.50;;;;;;;;;;5094433;28;20099;-61
2022/07/08 07:19:09;;;;;;;2.00;1.10;;;;;;;;;;5079726;28;20032;-61
2022/07/08 07:21:35;;;;;;;0.77;0.53;;;;;;;;;;5073870;28;20032;-62
2022/07/08 07:24:02;;;;;;;2.13;1.40;;;;;;;;;;5073974;28;20031;-61
2022/07/08 07:26:29;;;;;;;1.07;0.87;;;;;;;;;;5070082;28;20021;-61
2022/07/08 07:28:55;;;;;;;2.97;1.63;;;;;;;;;;5080337;28;20052;-63
2022/07/08 07:31:22;;;;;;;1.53;1.17;;;;;;;;;;5088524;28;20016;-61
2022/07/08 07:33:49;;;;;;;2.87;1.77;;;;;;;;;;5088554;28;20447;-62
2022/07/08 07:36:15;;;;;;;18.07;1.53;;;;;;;;;;5091681;28;20028;-61
2022/07/08 07:38:42;;;;;;;1.33;1.23;;;;;;;;;;5083526;28;20051;-61
2022/07/08 07:41:08;;;;;;;12.27;2.03;;;;;;;;;;5073754;28;20019;-61
2022/07/08 07:43:35;;;;;;;3.70;2.03;;;;;;;;;;5073499;28;20077;-61
2022/07/08 07:46:02;;;;;;;1.97;1.47;;;;;;;;;;5073696;28;20025;-61
2022/07/08 07:48:28;;;;;;;4.33;1.43;;;;;;;;;;5077827;28;20028;-61
2022/07/08 07:50:55;;;;;;;5.23;1.87;;;;;;;;;;5088173;28;20081;-61
2022/07/08 07:53:23;;;;;;;1.43;1.07;;;;;;;;;;5088214;28;20031;-61
2022/07/08 07:55:50;;;;;;;1.80;0.97;;;;;;;;;;5088014;28;20387;-61
2022/07/08 07:58:16;;;;;;;4.87;2.20;;;;;;;;;;5084731;28;20024;-62
2022/07/08 08:00:43;;;;;;;3.13;1.73;;;;;;;;;;5073238;28;20021;-62
2022/07/08 08:03:10;;;;;;;1.70;1.23;;;;;;;;;;5072760;28;20028;-61
2022/07/08 08:05:38;;;;;;;4.37;1.23;;;;;;;;;;5073204;28;20082;-61
2022/07/08 08:08:05;;;;;;;1.00;0.93;;;;;;;;;;5077161;28;20408;-61
2022/07/08 08:10:32;;;;;;;6.23;0.97;;;;;;;;;;5090363;28;20121;-61
2022/07/08 08:12:59;;;;;;;0.73;0.60;;;;;;;;;;5087871;28;20486;-61
2022/07/08 08:15:29;;;;;;;1.90;1.20;;;;;;;;;;5087702;28;20020;-61
2022/07/08 08:17:56;;;;;;;1.37;1.10;;;;;;;;;;5084610;28;20033;-61
2022/07/08 08:20:24;;;;;;;2.20;1.23;;;;;;;;;;5069995;28;20479;-61
2022/07/08 08:22:52;;;;;;;1.13;0.83;;;;;;;;;;5072764;28;20023;-61
2022/07/08 08:25:18;;;;;;;1.93;1.27;;;;;;;;;;5072779;28;20051;-61
2022/07/08 08:27:45;;;;;;;1.70;0.90;;;;;;;;;;5073185;28;20372;-61
2022/07/08 08:30:12;;;;;;;4.57;2.00;;;;;;;;;;5092922;28;20062;-62
2022/07/08 08:32:39;;;;;;;2.43;1.67;;;;;;;;;;5089773;28;20016;-62
2022/07/08 08:35:06;;;;;;;3.27;2.10;;;;;;;;;;5087393;28;20055;-61
2022/07/08 08:37:33;;;;;;;0.63;0.63;;;;;;;;;;5087415;28;20482;-61
2022/07/08 08:40:04;;;;;;;1.13;0.87;;;;;;;;;;5067639;28;20560;-61
2022/07/08 08:42:31;;;;;;;2.23;1.50;;;;;;;;;;5070956;28;20031;-61
2022/07/08 08:45:02;;;;;;;1.73;1.30;;;;;;;;;;5092837;28;20020;-61
2022/07/08 08:47:30;;;;;;;1.57;1.33;;;;;;;;;;5092206;28;20475;-61
2022/07/08 08:49:57;;;;;;;2.87;1.47;;;;;;;;;;5092682;28;20040;-62
2022/07/08 08:52:25;;;;;;;3.07;2.03;;;;;;;;;;5092361;28;20028;-62
2022/07/08 08:54:52;;;;;;;8.10;1.50;;;;;;;;;;5049457;28;20549;-61
2022/07/08 08:57:22;;;;;;;11.00;1.67;;;;;;;;;;5047484;28;20047;-63
2022/07/08 08:59:50;;;;;;;3.43;1.83;;;;;;;;;;5067200;28;20029;-62
2022/07/08 09:02:17;;;;;;;1.27;0.83;;;;;;;;;;5066820;28;20024;-61
2022/07/08 09:04:44;;;;;;;0.47;0.47;;;;;;;;;;5069238;28;20027;-61
2022/07/08 09:07:10;;;;;;;1.00;0.53;;;;;;;;;;5072158;28;20107;-61
2022/07/08 09:09:37;;;;;;;2.40;1.53;;;;;;;;;;5090235;28;20032;-62
2022/07/08 09:12:22;;;;;;;1.10;1.00;;;;;;;;;;5092534;28;20024;-61
2022/07/08 09:14:50;;;;;;;2.03;0.93;;;;;;;;;;5092036;28;20023;-61
2022/07/08 09:17:17;;;;;;;3.20;1.50;;;;;;;;;;5089058;28;20020;-61
2022/07/08 09:19:50;;;;;;;1.03;0.93;;;;;;;;;;5067744;28;20177;-62
2022/07/08 09:22:17;;;;;;;9.67;1.80;;;;;;;;;;5066693;28;20461;-61
2022/07/08 09:24:44;;;;;;;0.47;0.47;;;;;;;;;;5066934;28;20024;-62
2022/07/08 09:27:11;;;;;;;1.97;0.93;;;;;;;;;;5069533;28;20025;-61
2022/07/08 09:29:56;;;;;;;3.10;1.17;;;;;;;;;;5089099;28;20097;-61
2022/07/08 09:32:23;;;;;;;1.67;1.10;;;;;;;;;;5092339;28;20415;-61
2022/07/08 09:34:49;;;;;;;4.07;1.60;;;;;;;;;;5092172;28;20134;-61
2022/07/08 09:37:17;;;;;;;1.50;1.23;;;;;;;;;;5092053;28;20027;-62
2022/07/08 09:39:45;;;;;;;6.03;1.40;;;;;;;;;;5069271;28;20379;-61
2022/07/08 09:42:13;;;;;;;0.63;0.43;;;;;;;;;;5066368;28;20479;-61
2022/07/08 09:44:40;;;;;;;2.03;1.10;;;;;;;;;;5066501;28;20410;-61
2022/07/08 09:47:11;;;;;;;1.20;0.87;;;;;;;;;;5066591;28;20101;-61
2022/07/08 09:49:40;;;;;;;1.13;1.00;;;;;;;;;;5086915;28;20053;-61
2022/07/08 09:52:07;;;;;;;4.40;1.20;;;;;;;;;;5093479;28;20051;-61
2022/07/08 09:54:34;;;;;;;3.53;1.27;;;;;;;;;;5095487;28;20095;-61
2022/07/08 09:57:01;;;;;;;1.17;0.60;;;;;;;;;;5096064;28;20081;-61
2022/07/08 09:59:29;;;;;;;1.63;1.27;;;;;;;;;;5095109;28;20028;-62
2022/07/08 10:01:55;;;;;;;1.83;0.83;;;;;;;;;;5075722;28;20032;-61
2022/07/08 10:04:25;;;;;;;1.30;1.13;;;;;;;;;;5090457;28;20051;-61
2022/07/08 10:06:52;;;;;;;13.87;1.20;;;;;;;;;;5090578;28;20024;-61
2022/07/08 10:09:19;;;;;;;6.47;1.10;;;;;;;;;;5090054;28;20024;-61
2022/07/08 10:11:47;;;;;;;1.30;1.20;;;;;;;;;;5091350;28;20107;-61
2022/07/08 10:14:14;;;;;;;1.57;1.17;;;;;;;;;;5075364;28;20033;-61
2022/07/08 10:16:42;;;;;;;1.60;1.20;;;;;;;;;;5075433;28;20052;-61
2022/07/08 10:19:11;;;;;;;1.10;1.00;;;;;;;;;;5075241;28;20035;-61
2022/07/08 10:21:39;;;;;;;0.60;0.60;;;;;;;;;;5075051;28;20490;-61
2022/07/08 10:24:07;;;;;;;1.57;1.20;;;;;;;;;;5072696;28;20020;-61
2022/07/08 10:26:36;;;;;;;1.53;1.00;;;;;;;;;;5090062;28;20016;-62
2022/07/08 10:29:07;;;;;;;2.10;1.57;;;;;;;;;;5089666;28;20467;-61
2022/07/08 10:31:52;;;;;;;3.57;1.80;;;;;;;;;;5089760;28;20036;-61
2022/07/08 10:34:22;;;;;;;2.27;1.30;;;;;;;;;;5093509;28;20532;-61
2022/07/08 10:36:53;;;;;;;1.10;1.00;;;;;;;;;;5086610;28;20032;-62
2022/07/08 10:39:29;;;;;;;1.93;1.30;;;;;;;;;;5074719;28;20052;-61
2022/07/08 10:42:06;;;;;;;2.23;1.50;;;;;;;;;;5074810;28;20112;-61
2022/07/08 10:44:46;;;;;;;1.70;1.57;;;;;;;;;;5074571;28;20425;-61
2022/07/08 10:47:16;;;;;;;1.03;0.90;;;;;;;;;;5069043;28;20036;-61
2022/07/08 10:49:47;;;;;;;1.00;0.80;;;;;;;;;;5084760;28;20090;-61
2022/07/08 10:52:14;;;;;;;10.40;2.10;;;;;;;;;;5089605;28;20035;-61
2022/07/08 10:54:42;;;;;;;1.70;1.27;;;;;;;;;;5089255;28;20028;-61
2022/07/08 10:57:10;;;;;;;23.73;1.57;;;;;;;;;;5094721;28;20536;-61
2022/07/08 10:59:39;;;;;;;1.87;1.40;;;;;;;;;;5094469;28;20023;-62
2022/07/08 11:02:13;;;;;;;1.40;0.63;;;;;;;;;;5054306;28;20029;-61
2022/07/08 11:04:40;;;;;;;4.50;1.57;;;;;;;;;;5054180;28;20479;-61
2022/07/08 11:07:16;;;;;;;0.90;0.77;;;;;;;;;;5053198;28;20025;-61
2022/07/08 11:09:43;;;;;;;1.20;1.10;;;;;;;;;;5049041;28;20046;-61
2022/07/08 11:12:13;;;;;;;1.83;1.07;;;;;;;;;;5052797;28;20033;-61
2022/07/08 11:14:50;;;;;;;1.83;1.50;;;;;;;;;;5089120;28;20032;-61
2022/07/08 11:17:20;;;;;;;2.17;1.13;;;;;;;;;;5090275;28;20026;-61
2022/07/08 11:19:48;;;;;;;0.83;0.83;;;;;;;;;;5094161;28;20103;-61
2022/07/08 11:22:15;;;;;;;0.63;0.63;;;;;;;;;;5094292;28;20482;-61
2022/07/08 11:24:43;;;;;;;6.20;1.87;;;;;;;;;;5085429;28;20064;-61
2022/07/08 11:27:10;;;;;;;1.33;0.90;;;;;;;;;;5074053;28;20086;-61
2022/07/08 11:29:37;;;;;;;1.53;1.10;;;;;;;;;;5072162;28;20060;-61
2022/07/08 11:32:06;;;;;;;4.67;2.07;;;;;;;;;;5068209;28;20394;-61
2022/07/08 11:34:32;;;;;;;2.13;1.27;;;;;;;;;;5068354;28;20505;-61
2022/07/08 11:37:00;;;;;;;1.17;1.07;;;;;;;;;;5079260;28;20035;-61
2022/07/08 11:39:27;;;;;;;1.53;1.13;;;;;;;;;;5089582;28;20035;-61
2022/07/08 11:41:55;;;;;;;0.97;0.77;;;;;;;;;;5093832;28;20020;-61
2022/07/08 11:44:22;;;;;;;12.10;1.97;;;;;;;;;;5093750;28;20048;-61
2022/07/08 11:46:50;;;;;;;2.57;1.80;;;;;;;;;;5093719;28;20036;-61
2022/07/08 11:49:17;;;;;;;6.07;1.57;;;;;;;;;;5081037;28;20479;-61
2022/07/08 11:51:48;;;;;;;4.83;1.83;;;;;;;;;;5071786;28;20033;-62
2022/07/08 11:54:15;;;;;;;6.40;1.97;;;;;;;;;;5067838;28;20386;-61
2022/07/08 11:56:42;;;;;;;1.10;1.00;;;;;;;;;;5067715;28;20028;-62
2022/07/08 11:59:09;;;;;;;2.63;1.50;;;;;;;;;;5067967;28;20099;-61
2022/07/08 12:01:36;;;;;;;2.13;1.43;;;;;;;;;;5082462;28;20027;-61
2022/07/08 12:04:06;;;;;;;2.27;1.23;;;;;;;;;;5093212;28;20142;-61
2022/07/08 12:06:34;;;;;;;1.37;1.23;;;;;;;;;;5093614;28;20024;-61
2022/07/08 12:09:10;;;;;;;1.00;0.90;;;;;;;;;;5093290;28;20023;-61
2022/07/08 12:11:40;;;;;;;3.27;1.90;;;;;;;;;;5093294;28;20035;-61
2022/07/08 12:14:08;;;;;;;7.60;2.03;;;;;;;;;;5074312;28;20024;-62
2022/07/08 12:16:36;;;;;;;2.17;1.53;;;;;;;;;;5067369;28;20033;-61
2022/07/08 12:19:04;;;;;;;3.50;1.93;;;;;;;;;;5067496;28;20150;-61
2022/07/08 12:21:31;;;;;;;2.40;1.57;;;;;;;;;;5067521;28;20039;-61
2022/07/08 12:24:01;;;;;;;1.20;1.00;;;;;;;;;;5069069;28;20017;-61
2022/07/08 12:26:28;;;;;;;2.43;1.10;;;;;;;;;;5090935;28;20065;-61
2022/07/08 12:28:55;;;;;;;2.87;2.07;;;;;;;;;;5092423;28;20020;-61
2022/07/08 12:31:34;;;;;;;1.83;1.30;;;;;;;;;;5092597;28;20451;-61
2022/07/08 12:34:01;;;;;;;2.47;2.03;;;;;;;;;;5092845;28;20051;-61
2022/07/08 12:36:28;;;;;;;2.40;1.77;;;;;;;;;;5085875;28;20028;-61
2022/07/08 12:38:55;;;;;;;1.93;1.73;;;;;;;;;;5067221;28;20036;-62
2022/07/08 12:41:22;;;;;;;1.90;1.60;;;;;;;;;;5066745;28;20024;-61
2022/07/08 12:43:49;;;;;;;2.67;2.00;;;;;;;;;;5067198;28;20039;-61
2022/07/08 12:46:16;;;;;;;4.13;2.07;;;;;;;;;;5068970;28;20094;-61
2022/07/08 12:48:43;;;;;;;2.70;1.97;;;;;;;;;;5076791;28;20031;-61
2022/07/08 12:51:09;;;;;;;3.03;1.77;;;;;;;;;;5092761;28;20060;-61
2022/07/08 12:53:36;;;;;;;5.07;2.30;;;;;;;;;;5092617;28;20379;-61
2022/07/08 12:56:03;;;;;;;1.87;1.30;;;;;;;;;;5092652;28;20352;-61
2022/07/08 12:58:29;;;;;;;4.00;1.80;;;;;;;;;;5089612;28;20050;-61
2022/07/08 13:00:56;;;;;;;3.43;1.80;;;;;;;;;;5078030;28;20032;-61
2022/07/08 13:03:23;;;;;;;1.17;0.97;;;;;;;;;;5066749;28;20025;-61
2022/07/08 13:05:49;;;;;;;1.27;1.17;;;;;;;;;;5067069;28;20028;-61
2022/07/08 13:08:16;;;;;;;2.20;2.00;;;;;;;;;;5068573;28;20059;-61
2022/07/08 13:10:43;;;;;;;2.13;1.47;;;;;;;;;;5072224;28;20028;-61
2022/07/08 13:13:09;;;;;;;1.53;1.37;;;;;;;;;;5080398;28;20038;-62
2022/07/08 13:15:36;;;;;;;2.33;1.77;;;;;;;;;;5092375;28;20094;-61
2022/07/08 13:18:03;;;;;;;2.47;1.70;;;;;;;;;;5092345;28;20049;-61
2022/07/08 13:20:30;;;;;;;4.17;2.30;;;;;;;;;;5089966;28;20364;-61
2022/07/08 13:22:56;;;;;;;3.17;1.50;;;;;;;;;;5086793;28;20051;-61
2022/07/08 13:25:23;;;;;;;3.00;2.17;;;;;;;;;;5077133;28;20360;-62
2022/07/08 13:27:50;;;;;;;2.03;1.40;;;;;;;;;;5070944;28;20039;-61
2022/07/08 13:30:16;;;;;;;2.73;1.60;;;;;;;;;;5072188;28;20040;-61
2022/07/08 13:32:43;;;;;;;2.30;1.33;;;;;;;;;;5076130;28;20093;-61
2022/07/08 13:35:09;;;;;;;1.80;1.60;;;;;;;;;;5076182;28;20029;-61
2022/07/08 13:37:36;;;;;;;1.40;1.10;;;;;;;;;;5088846;28;20028;-61
2022/07/08 13:40:03;;;;;;;2.20;2.00;;;;;;;;;;5096316;28;20038;-61
2022/07/08 13:42:30;;;;;;;10.57;2.30;;;;;;;;;;5094393;28;20056;-62
2022/07/08 13:44:57;;;;;;;2.57;1.63;;;;;;;;;;5073048;28;20541;-61
2022/07/08 13:47:23;;;;;;;4.30;1.37;;;;;;;;;;5070566;28;20020;-61
2022/07/08 13:49:50;;;;;;;1.73;1.37;;;;;;;;;;5070369;28;20036;-61
2022/07/08 13:52:17;;;;;;;5.20;2.50;;;;;;;;;;5071402;28;20017;-61
2022/07/08 13:54:43;;;;;;;5.23;1.43;;;;;;;;;;5089611;28;20111;-61
2022/07/08 13:57:10;;;;;;;1.90;1.47;;;;;;;;;;5095974;28;20027;-61
2022/07/08 13:59:37;;;;;;;2.17;1.67;;;;;;;;;;5080654;28;20545;-62
2022/07/08 14:02:03;;;;;;;1.17;0.93;;;;;;;;;;5075618;28;20027;-61
2022/07/08 14:04:30;;;;;;;4.30;1.60;;;;;;;;;;5074133;28;20025;-61
2022/07/08 14:06:57;;;;;;;3.33;1.50;;;;;;;;;;5069825;28;20032;-62
2022/07/08 14:09:23;;;;;;;8.03;2.63;;;;;;;;;;5081189;28;20028;-61
2022/07/08 14:11:50;;;;;;;3.07;2.30;;;;;;;;;;5090301;28;20016;-61
2022/07/08 14:14:16;;;;;;;19.67;1.77;;;;;;;;;;5090883;28;20038;-61
2022/07/08 14:16:43;;;;;;;2.17;1.30;;;;;;;;;;5093792;28;20016;-62
2022/07/08 14:19:10;;;;;;;2.00;1.20;;;;;;;;;;5055368;28;20035;-61
2022/07/08 14:21:36;;;;;;;1.87;1.57;;;;;;;;;;5055349;28;20052;-61
2022/07/08 14:24:03;;;;;;;1.60;1.07;;;;;;;;;;5055254;28;20029;-61
2022/07/08 14:26:30;;;;;;;2.93;1.50;;;;;;;;;;5053922;28;20373;-61
2022/07/08 14:28:56;;;;;;;1.20;0.87;;;;;;;;;;5087439;28;20036;-61
2022/07/08 14:31:23;;;;;;;2.67;1.70;;;;;;;;;;5089577;28;20382;-61
2022/07/08 14:33:50;;;;;;;26.60;1.90;;;;;;;;;;5089890;28;20558;-61
2022/07/08 14:36:16;;;;;;;2.43;1.33;;;;;;;;;;5090214;28;20016;-61
2022/07/08 14:38:43;;;;;;;0.97;0.77;;;;;;;;;;5094265;28;20504;-61
2022/07/08 14:41:10;;;;;;;1.23;0.73;;;;;;;;;;5075897;28;20379;-61
2022/07/08 14:43:37;;;;;;;4.43;1.83;;;;;;;;;;5074858;28;20046;-61